Time;durP1;ratioP1;P1;durP2;ratioP2;P2;SDS_P1;SDS_P2;PMS_P1;PMS_P2;Temp;Humidity;BMP_temperature;BMP_pressure;BME280_temperature;BME280_humidity;BME280_pressure;Samples;Min_cycle;Max_cycle;Signal;HPM_P1;HPM_P2
2024/01/16 00:01:01;;;;;;;1999.90;999.90;;;;;;;0.04;100.00;100818.03;10317085;28;20058;-70
2024/01/16 00:06:05;;;;;;;1999.90;999.90;;;;;;;0.15;100.00;100817.84;10333928;28;20054;-70
2024/01/16 00:11:08;;;;;;;1999.90;999.90;;;;;;;0.00;100.00;100811.22;10332613;28;20100;-70
2024/01/16 00:16:10;;;;;;;1999.90;999.90;;;;;;;-0.16;100.00;100817.44;10333811;28;20046;-70
2024/01/16 00:21:12;;;;;;;1999.90;999.90;;;;;;;-0.14;100.00;100819.09;10332466;28;20047;-70
2024/01/16 00:26:22;;;;;;;1999.90;999.90;;;;;;;-0.18;100.00;100812.31;10332756;28;20058;-70
2024/01/16 00:31:24;;;;;;;1999.90;999.90;;;;;;;-0.24;100.00;100813.22;10333569;28;20053;-70
2024/01/16 00:36:27;;;;;;;1999.90;999.90;;;;;;;-0.25;100.00;100814.09;10332150;28;20051;-70
2024/01/16 00:41:29;;;;;;;1999.90;999.90;;;;;;;-0.29;100.00;100812.41;10333245;28;20417;-70
2024/01/16 00:46:31;;;;;;;1999.90;999.90;;;;;;;-0.33;100.00;100817.66;10332086;28;20050;-70
2024/01/16 00:51:34;;;;;;;1999.90;999.90;;;;;;;-0.39;100.00;100827.13;10333310;28;20133;-70
2024/01/16 00:56:36;;;;;;;1999.90;999.90;;;;;;;-0.41;100.00;100820.28;10333486;28;20375;-70
2024/01/16 01:01:39;;;;;;;1999.90;999.90;;;;;;;-0.28;100.00;100834.72;10333148;28;20061;-71
2024/01/16 01:06:41;;;;;;;1999.90;999.90;;;;;;;-0.21;100.00;100850.94;10331657;28;20425;-71
2024/01/16 01:11:44;;;;;;;1999.90;999.90;;;;;;;-0.12;100.00;100857.69;10331574;28;20057;-71
2024/01/16 01:16:46;;;;;;;1999.90;999.90;;;;;;;-0.03;100.00;100848.13;10332849;28;20046;-71
2024/01/16 01:21:49;;;;;;;1999.90;999.90;;;;;;;-0.15;100.00;100842.28;10332795;28;20137;-70
2024/01/16 01:26:51;;;;;;;1999.90;999.90;;;;;;;-0.18;100.00;100840.63;10339549;28;20081;-71
2024/01/16 01:31:54;;;;;;;1999.90;999.90;;;;;;;-0.36;100.00;100840.84;10338505;28;20056;-71
2024/01/16 01:36:57;;;;;;;1999.90;999.90;;;;;;;-0.21;100.00;100844.06;10339240;28;20485;-71
2024/01/16 01:42:00;;;;;;;1999.90;999.90;;;;;;;-0.14;100.00;100844.84;10339127;28;20050;-71
2024/01/16 01:47:03;;;;;;;1999.90;999.90;;;;;;;-0.22;100.00;100850.09;10339030;28;20042;-71
2024/01/16 01:52:05;;;;;;;1999.90;999.90;;;;;;;-0.20;100.00;100860.38;10337789;28;20061;-71
2024/01/16 01:57:09;;;;;;;1999.90;999.90;;;;;;;-0.06;100.00;100855.91;10337324;28;20042;-71
2024/01/16 02:02:12;;;;;;;1999.90;999.90;;;;;;;-0.15;100.00;100852.56;10338411;28;20055;-71
2024/01/16 02:07:15;;;;;;;1999.90;999.90;;;;;;;-0.18;100.00;100856.06;10338330;28;20051;-71
2024/01/16 02:12:18;;;;;;;1999.90;999.90;;;;;;;-0.24;100.00;100867.25;10337997;28;20061;-71
2024/01/16 02:17:22;;;;;;;1999.90;999.90;;;;;;;-0.08;100.00;100860.22;10337743;28;20046;-71
2024/01/16 02:22:26;;;;;;;1999.90;999.90;;;;;;;-0.16;100.00;100862.03;10336260;28;20536;-71
2024/01/16 02:27:29;;;;;;;1999.90;999.90;;;;;;;-0.06;100.00;100862.78;10337019;28;20054;-71
2024/01/16 02:32:31;;;;;;;1999.90;999.90;;;;;;;-0.02;100.00;100852.44;10337244;28;20061;-71
2024/01/16 02:37:33;;;;;;;1999.90;999.90;;;;;;;0.06;100.00;100872.91;10318924;28;20046;-71
2024/01/16 02:42:37;;;;;;;1999.90;999.90;;;;;;;-0.04;100.00;100869.59;10336907;28;20125;-71
2024/01/16 02:47:40;;;;;;;1999.90;999.90;;;;;;;0.07;100.00;100873.75;10336615;28;20050;-71
2024/01/16 02:52:43;;;;;;;1999.90;999.90;;;;;;;0.13;100.00;100873.69;10336636;28;20061;-71
2024/01/16 02:57:45;;;;;;;1999.90;999.90;;;;;;;0.01;100.00;100890.13;10334944;28;20531;-71
2024/01/16 03:02:47;;;;;;;1999.90;999.90;;;;;;;0.16;100.00;100883.94;10319242;28;20046;-71
2024/01/16 03:07:50;;;;;;;1999.90;999.90;;;;;;;0.16;100.00;100879.63;10335839;28;20094;-71
2024/01/16 03:12:52;;;;;;;1999.90;999.90;;;;;;;0.10;100.00;100886.59;10334756;28;20129;-71
2024/01/16 03:17:55;;;;;;;1999.90;999.90;;;;;;;0.08;100.00;100881.47;10335466;28;20383;-71
2024/01/16 03:22:58;;;;;;;1999.90;999.90;;;;;;;0.14;100.00;100873.66;10318120;28;20085;-71
2024/01/16 03:28:00;;;;;;;1999.90;999.90;;;;;;;0.27;100.00;100876.94;10318091;28;20072;-71
2024/01/16 03:33:03;;;;;;;1999.90;999.90;;;;;;;0.21;100.00;100868.44;10333814;28;20133;-71
2024/01/16 03:38:05;;;;;;;1999.90;999.90;;;;;;;0.17;100.00;100862.50;10334864;28;20050;-70
2024/01/16 03:43:08;;;;;;;1999.90;999.90;;;;;;;0.07;100.00;100863.44;10333547;28;20061;-70
2024/01/16 03:48:10;;;;;;;1999.90;999.90;;;;;;;0.17;100.00;100860.75;10334632;28;20086;-71
2024/01/16 03:53:13;;;;;;;1999.90;999.90;;;;;;;0.10;100.00;100854.00;10334772;28;20085;-70
2024/01/16 03:58:15;;;;;;;1999.90;999.90;;;;;;;0.08;100.00;100850.56;10332945;28;20046;-71
2024/01/16 04:03:18;;;;;;;1999.90;999.90;;;;;;;0.21;100.00;100860.72;10332906;28;20057;-71
2024/01/16 04:08:20;;;;;;;1999.90;999.90;;;;;;;0.17;100.00;100855.59;10333873;28;20058;-70
2024/01/16 04:13:23;;;;;;;1999.90;999.90;;;;;;;0.40;100.00;100853.56;10333764;28;20406;-71
2024/01/16 04:18:25;;;;;;;1999.90;999.90;;;;;;;0.26;100.00;100856.34;10333588;28;20413;-70
2024/01/16 04:23:28;;;;;;;1999.90;999.90;;;;;;;0.21;100.00;100846.09;10333342;28;20054;-71
2024/01/16 04:28:30;;;;;;;1999.90;999.90;;;;;;;0.28;100.00;100842.56;10333740;28;20042;-70
2024/01/16 04:33:33;;;;;;;1999.90;999.90;;;;;;;0.43;100.00;100830.34;10332433;28;20129;-71
2024/01/16 04:38:35;;;;;;;1999.90;999.90;;;;;;;0.35;100.00;100844.19;10333529;28;20046;-71
2024/01/16 04:43:38;;;;;;;1999.90;999.90;;;;;;;0.30;100.00;100842.53;10333238;28;20493;-71
2024/01/16 04:48:40;;;;;;;1999.90;999.90;;;;;;;0.52;100.00;100846.53;10333164;28;20043;-71
2024/01/16 04:53:42;;;;;;;1999.90;999.90;;;;;;;0.16;100.00;100850.47;10333173;28;20511;-70
2024/01/16 04:58:45;;;;;;;1999.90;999.90;;;;;;;0.30;100.00;100856.28;10336185;28;20478;-70
2024/01/16 05:03:47;;;;;;;1999.90;999.90;;;;;;;0.43;100.00;100848.38;10340655;28;20485;-70
2024/01/16 05:08:50;;;;;;;1999.90;999.90;;;;;;;0.20;100.00;100843.56;10339400;28;20050;-70
2024/01/16 05:13:57;;;;;;;1999.90;999.90;;;;;;;0.15;100.00;100836.75;10340491;28;20101;-70
2024/01/16 05:19:00;;;;;;;1999.90;999.90;;;;;;;0.02;100.00;100826.63;10339147;28;20058;-70
2024/01/16 05:24:03;;;;;;;1999.90;999.90;;;;;;;0.01;100.00;100825.78;10338685;28;20386;-70
2024/01/16 05:29:06;;;;;;;1999.90;999.90;;;;;;;0.06;100.00;100808.53;10339962;28;20046;-70
2024/01/16 05:34:10;;;;;;;1999.90;999.90;;;;;;;0.12;100.00;100812.78;10322546;28;20050;-70
2024/01/16 05:39:12;;;;;;;1999.90;999.90;;;;;;;0.15;100.00;100800.72;10338098;28;20069;-70
2024/01/16 05:44:15;;;;;;;1999.90;999.90;;;;;;;0.26;100.00;100799.69;10338023;28;20528;-71
2024/01/16 05:49:18;;;;;;;1999.90;999.90;;;;;;;0.15;100.00;100798.13;10339181;28;20042;-70
2024/01/16 05:54:20;;;;;;;1999.90;999.90;;;;;;;0.05;100.00;100795.69;10337691;28;20057;-70
2024/01/16 05:59:23;;;;;;;1999.90;999.90;;;;;;;0.06;100.00;100797.41;10338460;28;20185;-70
2024/01/16 06:04:25;;;;;;;1999.90;999.90;;;;;;;0.09;100.00;100799.94;10338516;28;20054;-70
2024/01/16 06:09:27;;;;;;;1999.90;999.90;;;;;;;0.07;100.00;100811.97;10337820;28;20109;-70
2024/01/16 06:14:30;;;;;;;1999.90;999.90;;;;;;;0.01;100.00;100809.50;10337087;28;20056;-70
2024/01/16 06:19:32;;;;;;;1999.90;999.90;;;;;;;0.11;100.00;100804.19;10337779;28;20046;-70
2024/01/16 06:24:36;;;;;;;1999.90;999.90;;;;;;;0.10;100.00;100799.94;10336726;28;20093;-70
2024/01/16 06:29:39;;;;;;;1999.90;999.90;;;;;;;0.18;100.00;100797.22;10337441;28;20486;-70
2024/01/16 06:34:42;;;;;;;1999.90;999.90;;;;;;;0.15;100.00;100797.25;10337212;28;20050;-70
2024/01/16 06:39:44;;;;;;;1999.90;999.90;;;;;;;0.15;100.00;100798.13;10337162;28;20104;-70
2024/01/16 06:44:46;;;;;;;1999.90;999.90;;;;;;;0.01;100.00;100799.19;10336755;28;20056;-70
2024/01/16 06:49:49;;;;;;;1999.90;999.90;;;;;;;0.09;100.00;100797.38;10335705;28;20046;-70
2024/01/16 06:54:51;;;;;;;1999.90;999.90;;;;;;;0.20;100.00;100808.34;10319211;28;20494;-70
2024/01/16 06:59:54;;;;;;;1999.90;999.90;;;;;;;0.29;100.00;100802.22;10336093;28;20137;-70
2024/01/16 07:04:56;;;;;;;1999.90;999.90;;;;;;;0.14;100.00;100803.31;10334983;28;20050;-70
2024/01/16 07:10:02;;;;;;;1999.90;999.90;;;;;;;0.13;100.00;100810.16;10334715;28;20520;-70
2024/01/16 07:15:05;;;;;;;1999.90;999.90;;;;;;;0.33;100.00;100811.59;10335700;28;20076;-70
2024/01/16 07:20:08;;;;;;;1999.90;999.90;;;;;;;0.36;100.00;100804.69;10334983;28;20064;-70
2024/01/16 07:25:10;;;;;;;1999.90;999.90;;;;;;;0.16;100.00;100804.13;10335363;28;20093;-70
2024/01/16 07:30:13;;;;;;;1999.90;999.90;;;;;;;0.18;100.00;100802.38;10334155;28;20046;-70
2024/01/16 07:35:15;;;;;;;1999.90;999.90;;;;;;;0.13;100.00;100799.84;10334873;28;20109;-70
2024/01/16 07:40:18;;;;;;;1999.90;999.90;;;;;;;0.02;100.00;100812.03;10333724;28;20078;-70
2024/01/16 07:45:20;;;;;;;1999.90;999.90;;;;;;;0.04;100.00;100810.28;10334575;28;20127;-70
2024/01/16 07:50:22;;;;;;;1999.90;999.90;;;;;;;0.12;100.00;100811.03;10334413;28;20546;-70
2024/01/16 07:55:25;;;;;;;1999.90;999.90;;;;;;;-0.19;100.00;100813.16;10334419;28;20117;-70
2024/01/16 08:00:27;;;;;;;1999.90;999.90;;;;;;;0.05;100.00;100816.28;10334142;28;20052;-70
2024/01/16 08:05:30;;;;;;;1999.90;999.90;;;;;;;0.20;100.00;100820.38;10332881;28;20057;-70
2024/01/16 08:10:32;;;;;;;1999.90;999.90;;;;;;;0.12;100.00;100825.66;10332821;28;20046;-70
2024/01/16 08:15:35;;;;;;;1999.90;999.90;;;;;;;0.17;100.00;100829.00;10334111;28;20062;-70
2024/01/16 08:20:37;;;;;;;1999.90;999.90;;;;;;;0.02;100.00;100827.50;10332545;28;20078;-70
2024/01/16 08:25:40;;;;;;;1999.90;999.90;;;;;;;-0.10;100.00;100814.75;10333798;28;20058;-70
2024/01/16 08:30:42;;;;;;;1999.90;999.90;;;;;;;0.02;100.00;100821.47;10332609;28;20081;-70
2024/01/16 08:35:44;;;;;;;1999.90;999.90;;;;;;;0.01;100.00;100823.19;10341774;28;20082;-70
2024/01/16 08:40:47;;;;;;;1999.90;999.90;;;;;;;0.00;100.00;100831.81;10341077;28;20121;-70
2024/01/16 08:45:50;;;;;;;1999.90;999.90;;;;;;;0.15;100.00;100828.16;10341518;28;20050;-70
2024/01/16 08:50:56;;;;;;;1999.90;999.90;;;;;;;-0.11;100.00;100841.38;10341478;28;20129;-70
2024/01/16 08:56:00;;;;;;;1999.90;999.90;;;;;;;-0.09;100.00;100829.34;10341110;28;20058;-70
2024/01/16 09:01:04;;;;;;;1999.90;999.90;;;;;;;-0.12;100.00;100825.06;10340858;28;20051;-70
2024/01/16 09:06:08;;;;;;;1999.90;999.90;;;;;;;0.18;100.00;100825.53;10339659;28;20050;-70
2024/01/16 09:11:11;;;;;;;1999.90;999.90;;;;;;;0.29;100.00;100815.94;10339301;28;20453;-70
2024/01/16 09:16:14;;;;;;;1999.90;999.90;;;;;;;0.15;100.00;100823.00;10340416;28;20050;-70
2024/01/16 09:21:17;;;;;;;1999.90;999.90;;;;;;;0.27;100.00;100821.97;10340070;28;20399;-70
2024/01/16 09:26:20;;;;;;;1999.90;999.90;;;;;;;0.25;100.00;100818.59;10340047;28;20561;-70
2024/01/16 09:31:23;;;;;;;1999.90;999.90;;;;;;;0.33;100.00;100824.47;10340336;28;20129;-70
2024/01/16 09:36:25;;;;;;;1999.90;999.90;;;;;;;0.12;100.00;100820.50;10339456;28;20092;-70
2024/01/16 09:41:28;;;;;;;1999.90;999.90;;;;;;;0.29;100.00;100821.09;10353841;22;20417;-64
2024/01/16 09:46:31;;;;;;;1999.90;999.90;;;;;;;0.47;100.00;100813.97;10338045;28;20090;-65
2024/01/16 09:51:34;;;;;;;1999.90;999.90;;;;;;;0.87;100.00;100816.75;10339623;28;20085;-65
2024/01/16 09:56:43;;;;;;;1999.90;999.90;;;;;;;1.83;100.00;100810.66;10338848;28;20042;-65
2024/01/16 10:01:46;;;;;;;1999.90;999.90;;;;;;;1.21;99.63;100807.56;10337532;28;20458;-65
2024/01/16 10:06:50;;;;;;;1999.90;999.90;;;;;;;0.79;100.00;100803.16;10337434;28;20055;-65
2024/01/16 10:11:53;;;;;;;1999.90;999.90;;;;;;;0.91;100.00;100796.94;10337113;28;20050;-66
2024/01/16 10:17:05;;;;;;;1999.90;999.90;;;;;;;0.60;100.00;100794.03;10337046;28;20046;-65
2024/01/16 10:22:07;;;;;;;1999.90;999.90;;;;;;;0.97;100.00;100795.97;10338340;28;20054;-65
2024/01/16 10:27:09;;;;;;;1999.90;999.90;;;;;;;1.56;100.00;100799.16;10337890;28;20053;-65
2024/01/16 10:32:12;;;;;;;1999.90;999.90;;;;;;;1.36;97.79;100788.38;10336379;28;20051;-65
2024/01/16 10:37:15;;;;;;;1999.90;999.90;;;;;;;1.18;97.91;100768.94;10337207;28;20050;-65
2024/01/16 10:42:20;;;;;;;1999.90;999.90;;;;;;;1.54;98.72;100775.09;10337323;28;20129;-65
2024/01/16 10:47:23;;;;;;;1999.90;999.90;;;;;;;2.40;96.22;100780.09;10335679;28;20050;-65
2024/01/16 10:52:28;;;;;;;1999.90;999.90;;;;;;;1.29;92.38;100779.91;10336856;28;20077;-65
2024/01/16 10:57:34;;;;;;;1999.90;999.90;;;;;;;1.74;93.41;100771.28;10335523;28;20050;-65
2024/01/16 11:02:50;;;;;;;1999.90;999.90;;;;;;;1.73;92.28;100777.31;10335061;28;20105;-65
2024/01/16 11:07:54;;;;;;;1999.90;999.90;;;;;;;1.77;91.16;100787.53;10335132;28;20046;-65
2024/01/16 11:13:00;;;;;;;1999.90;999.90;;;;;;;2.47;89.01;100786.84;10336063;28;20053;-65
2024/01/16 11:18:04;;;;;;;1999.90;999.90;;;;;;;3.80;88.90;100766.03;10334657;28;20043;-65
2024/01/16 11:23:07;;;;;;;1999.90;999.90;;;;;;;3.02;83.61;100748.38;10335638;28;20481;-66
2024/01/16 11:28:14;;;;;;;1999.90;999.90;;;;;;;2.93;85.83;100754.66;10335286;28;20493;-66
2024/01/16 11:33:31;;;;;;;1999.90;999.90;;;;;;;2.57;85.08;100746.97;10333952;28;20074;-63
2024/01/16 11:38:34;;;;;;;1999.90;999.90;;;;;;;1.87;89.26;100733.97;10334827;28;20058;-63
2024/01/16 11:43:38;;;;;;;1999.90;999.90;;;;;;;1.96;90.11;100735.50;10333576;28;20058;-63
2024/01/16 11:48:41;;;;;;;1999.90;999.90;;;;;;;2.50;86.56;100741.97;10334535;28;20134;-63
2024/01/16 11:53:44;;;;;;;1999.90;999.90;;;;;;;2.00;86.09;100742.28;10334384;28;20050;-63
2024/01/16 11:59:12;;;;;;;1999.90;999.90;;;;;;;2.15;87.31;100739.38;10334411;28;20050;-63
2024/01/16 12:04:18;;;;;;;1999.90;999.90;;;;;;;2.62;84.14;100728.72;10334099;28;20113;-63
2024/01/16 12:09:20;;;;;;;1999.90;999.90;;;;;;;3.96;80.58;100731.91;10334131;28;20093;-64
2024/01/16 12:14:22;;;;;;;1999.90;999.90;;;;;;;2.24;82.38;100730.53;10333817;28;20408;-63
2024/01/16 12:19:25;;;;;;;1999.90;999.90;;;;;;;2.42;86.29;100731.81;10333648;28;20513;-63
2024/01/16 12:24:28;;;;;;;1999.90;999.90;;;;;;;2.45;85.38;100713.66;10332624;28;20050;-63
2024/01/16 12:29:31;;;;;;;1999.90;999.90;;;;;;;2.11;84.23;100714.47;10332496;28;20057;-63
2024/01/16 12:34:35;;;;;;;1999.90;999.90;;;;;;;1.93;88.32;100708.00;10333706;28;20125;-63
2024/01/16 12:39:37;;;;;;;1999.90;999.90;;;;;;;2.20;86.78;100691.03;10332286;28;20137;-63
2024/01/16 12:44:40;;;;;;;1999.90;999.90;;;;;;;2.00;87.64;100682.88;10332400;28;20141;-63
2024/01/16 12:49:43;;;;;;;1999.90;999.90;;;;;;;1.81;86.77;100687.63;10333321;28;20043;-63
2024/01/16 12:54:46;;;;;;;1999.90;999.90;;;;;;;2.36;86.22;100669.97;10333132;28;20061;-63
2024/01/16 12:59:49;;;;;;;1999.90;999.90;;;;;;;2.73;85.64;100667.25;10333154;28;20129;-63
2024/01/16 13:05:03;;;;;;;1999.90;999.90;;;;;;;2.74;86.42;100661.22;10332270;28;20051;-63
2024/01/16 13:10:15;;;;;;;1999.90;999.90;;;;;;;2.44;86.79;100660.28;10333125;28;20052;-63
2024/01/16 13:15:18;;;;;;;1999.90;999.90;;;;;;;2.12;86.59;100659.38;10332258;28;20074;-63
2024/01/16 13:20:20;;;;;;;1999.90;999.90;;;;;;;1.91;85.91;100668.47;10337305;28;20129;-63
2024/01/16 13:25:23;;;;;;;1999.90;999.90;;;;;;;1.99;86.27;100655.38;10340017;28;20547;-63
2024/01/16 13:30:25;;;;;;;1999.90;999.90;;;;;;;1.64;87.87;100657.88;10340072;28;20056;-63
2024/01/16 13:35:47;;;;;;;1999.90;999.90;;;;;;;1.93;86.13;100658.09;10339753;28;20057;-64
2024/01/16 13:40:50;;;;;;;1999.90;999.90;;;;;;;1.69;88.57;100657.78;10339121;28;20061;-62
2024/01/16 13:45:52;;;;;;;1999.90;999.90;;;;;;;2.33;85.74;100657.13;10339411;28;20051;-63
2024/01/16 13:50:55;;;;;;;1999.90;999.90;;;;;;;2.08;85.46;100656.88;10339173;28;20042;-63
2024/01/16 13:55:58;;;;;;;1999.90;999.90;;;;;;;1.84;84.82;100659.19;10339064;28;20486;-63
2024/01/16 14:01:00;;;;;;;1999.90;999.90;;;;;;;1.97;86.50;100647.66;10338695;28;20105;-63
2024/01/16 14:06:04;;;;;;;1999.90;999.90;;;;;;;1.78;86.10;100652.44;10338746;28;20078;-63
2024/01/16 14:11:06;;;;;;;1999.90;999.90;;;;;;;1.66;83.64;100652.69;10338428;28;20050;-63
2024/01/16 14:16:09;;;;;;;1999.90;999.90;;;;;;;1.54;86.92;100642.66;10338106;28;20100;-63
2024/01/16 14:21:12;;;;;;;1999.90;999.90;;;;;;;1.72;87.44;100637.06;10336888;28;20050;-63
2024/01/16 14:26:15;;;;;;;1999.90;999.90;;;;;;;1.59;86.11;100620.19;10338146;28;20524;-63
2024/01/16 14:31:18;;;;;;;1999.90;999.90;;;;;;;1.68;85.66;100619.94;10337418;28;20129;-63
2024/01/16 14:36:20;;;;;;;1999.90;999.90;;;;;;;1.48;85.06;100631.59;10337352;28;20082;-63
2024/01/16 14:41:22;;;;;;;1999.90;999.90;;;;;;;1.44;85.22;100621.38;10337018;28;20060;-63
2024/01/16 14:46:25;;;;;;;1999.90;999.90;;;;;;;1.32;88.34;100612.16;10337073;28;20069;-63
2024/01/16 14:51:27;;;;;;;1999.90;999.90;;;;;;;1.50;87.44;100610.91;10336651;28;20052;-63
2024/01/16 14:56:30;;;;;;;1999.90;999.90;;;;;;;1.47;87.42;100608.41;10336709;28;20099;-63
2024/01/16 15:01:32;;;;;;;1999.90;999.90;;;;;;;1.05;87.86;100601.56;10336244;28;20053;-63
2024/01/16 15:06:35;;;;;;;1999.90;999.90;;;;;;;1.18;91.16;100599.59;10336621;28;20457;-63
2024/01/16 15:11:38;;;;;;;1999.90;999.90;;;;;;;1.09;90.99;100602.34;10336175;28;20054;-63
2024/01/16 15:16:40;;;;;;;1999.90;999.90;;;;;;;0.93;91.05;100602.69;10335752;28;20460;-63
2024/01/16 15:21:43;;;;;;;1999.90;999.90;;;;;;;0.77;89.92;100601.28;10335422;28;20501;-63
2024/01/16 15:26:45;;;;;;;1999.90;999.90;;;;;;;0.77;89.99;100593.56;10335388;28;20520;-63
2024/01/16 15:31:48;;;;;;;1999.90;999.90;;;;;;;0.22;92.10;100594.59;10335292;28;20050;-63
2024/01/16 15:36:50;;;;;;;1999.90;999.90;;;;;;;0.44;93.93;100588.19;10334930;28;20050;-63
2024/01/16 15:41:53;;;;;;;1999.90;999.90;;;;;;;0.08;94.92;100589.69;10334146;28;20387;-63
2024/01/16 15:47:00;;;;;;;1999.90;999.90;;;;;;;-0.11;97.08;100590.00;10334633;28;20490;-63
2024/01/16 15:52:03;;;;;;;1999.90;999.90;;;;;;;-0.02;96.35;100600.16;10334613;28;20046;-63
2024/01/16 15:57:06;;;;;;;1999.90;999.90;;;;;;;-0.08;97.85;100597.69;10334413;28;20489;-64
2024/01/16 16:02:08;;;;;;;1999.90;999.90;;;;;;;-0.23;98.73;100610.81;10334805;28;20058;-63
2024/01/16 16:07:11;;;;;;;1999.90;999.90;;;;;;;-0.29;97.77;100609.16;10334278;28;20060;-63
2024/01/16 16:12:13;;;;;;;1999.90;999.90;;;;;;;-0.23;99.50;100615.94;10333853;28;20494;-63
2024/01/16 16:17:19;;;;;;;1999.90;999.90;;;;;;;-0.17;98.76;100615.00;10334082;28;20085;-63
2024/01/16 16:22:22;;;;;;;1999.90;999.90;;;;;;;-0.40;98.52;100624.78;10332640;28;20065;-63
2024/01/16 16:27:25;;;;;;;1999.90;999.90;;;;;;;-0.57;97.93;100622.44;10333541;28;20402;-63
2024/01/16 16:32:28;;;;;;;1999.90;999.90;;;;;;;-0.50;99.80;100617.22;10332397;28;20449;-63
2024/01/16 16:37:31;;;;;;;1999.90;999.90;;;;;;;-0.59;100.00;100631.91;10333318;28;20046;-63
2024/01/16 16:42:33;;;;;;;1999.90;999.90;;;;;;;-0.65;100.00;100623.44;10332326;28;20050;-63
2024/01/16 16:47:35;;;;;;;1999.90;999.90;;;;;;;-0.66;99.39;100625.13;10333443;28;20050;-63
2024/01/16 16:52:38;;;;;;;1999.90;999.90;;;;;;;-0.40;100.00;100621.34;10333157;28;20133;-63
2024/01/16 16:57:40;;;;;;;1999.90;999.90;;;;;;;-0.13;98.29;100604.63;10340953;28;20482;-63
2024/01/16 17:02:42;;;;;;;1999.90;999.90;;;;;;;-0.41;97.94;100597.34;10339730;28;20134;-63
2024/01/16 17:07:45;;;;;;;1999.90;999.90;;;;;;;-0.52;99.55;100599.25;10340909;28;20050;-63
2024/01/16 17:12:48;;;;;;;1999.90;999.90;;;;;;;-0.34;100.00;100599.81;10340537;28;20058;-63
2024/01/16 17:17:50;;;;;;;1999.90;999.90;;;;;;;-0.31;99.70;100582.63;10340821;28;20054;-64
2024/01/16 17:22:54;;;;;;;1999.90;999.90;;;;;;;-0.33;97.03;100578.38;10340093;28;20058;-64
2024/01/16 17:27:56;;;;;;;1999.90;999.90;;;;;;;-0.15;96.33;100582.34;10340437;28;20051;-63
2024/01/16 17:32:58;;;;;;;1999.90;999.90;;;;;;;-0.20;95.88;100585.88;10339152;28;20054;-63
2024/01/16 17:38:01;;;;;;;1999.90;999.90;;;;;;;-0.14;96.21;100577.19;10339938;28;20069;-64
2024/01/16 17:43:04;;;;;;;1999.90;999.90;;;;;;;-0.41;95.77;100566.47;10340061;28;20054;-63
2024/01/16 17:48:07;;;;;;;1999.90;999.90;;;;;;;-0.16;94.84;100558.34;10338103;28;20494;-63
2024/01/16 17:53:10;;;;;;;1999.90;999.90;;;;;;;-0.22;93.34;100558.44;10339687;28;20401;-63
2024/01/16 17:58:15;;;;;;;1999.90;999.90;;;;;;;0.00;92.65;100548.66;10339249;28;20060;-63
2024/01/16 18:03:20;;;;;;;1999.90;999.90;;;;;;;-0.11;92.73;100542.84;10339246;28;20080;-63
2024/01/16 18:08:42;;;;;;;1999.90;999.90;;;;;;;-0.14;94.97;100548.03;10339393;28;20046;-64
2024/01/16 18:13:45;;;;;;;1999.90;999.90;;;;;;;-0.27;93.12;100537.97;10338708;28;20485;-64
2024/01/16 18:18:47;;;;;;;1999.90;999.90;;;;;;;-0.24;95.24;100537.88;10338176;28;20051;-63
2024/01/16 18:23:51;;;;;;;1999.90;999.90;;;;;;;-0.37;95.32;100520.97;10338503;28;20054;-64
2024/01/16 18:28:54;;;;;;;1999.90;999.90;;;;;;;-0.12;94.78;100513.66;10338331;28;20101;-63
2024/01/16 18:33:57;;;;;;;1999.90;999.90;;;;;;;-0.43;93.18;100503.91;10338103;28;20061;-63
2024/01/16 18:38:59;;;;;;;1999.90;999.90;;;;;;;-0.20;91.12;100513.81;10336288;28;20082;-64
2024/01/16 18:44:05;;;;;;;1999.90;999.90;;;;;;;-0.32;92.75;100508.03;10337620;28;20129;-64
2024/01/16 18:49:08;;;;;;;1999.90;999.90;;;;;;;-0.38;91.56;100504.69;10337578;28;20042;-64
2024/01/16 18:54:11;;;;;;;1999.90;999.90;;;;;;;-0.14;90.12;100489.69;10336199;28;20108;-64
2024/01/16 18:59:13;;;;;;;1999.90;999.90;;;;;;;-0.58;92.18;100489.59;10336497;28;20129;-64
2024/01/16 19:04:17;;;;;;;1999.90;999.90;;;;;;;-0.41;91.85;100491.88;10336320;28;20486;-64
2024/01/16 19:09:19;;;;;;;1999.90;999.90;;;;;;;-0.29;92.04;100498.53;10334972;28;20060;-64
2024/01/16 19:14:22;;;;;;;1999.90;999.90;;;;;;;-0.90;93.00;100490.09;10336556;28;20125;-64
2024/01/16 19:19:26;;;;;;;1999.90;999.90;;;;;;;-0.71;93.29;100479.53;10335554;28;20054;-63
2024/01/16 19:24:28;;;;;;;1999.90;999.90;;;;;;;-0.76;92.16;100482.16;10335050;28;20062;-64
2024/01/16 19:29:31;;;;;;;1999.90;999.90;;;;;;;-0.69;92.90;100478.66;10334803;28;20056;-64
2024/01/16 19:34:33;;;;;;;1999.90;999.90;;;;;;;-1.03;92.48;100478.28;10335151;28;20090;-63
2024/01/16 19:39:42;;;;;;;1999.90;999.90;;;;;;;-1.13;94.15;100472.44;10335268;28;20050;-63
2024/01/16 19:44:48;;;;;;;1999.90;999.90;;;;;;;-0.90;94.55;100464.41;10335536;28;20160;-63
2024/01/16 19:49:50;;;;;;;1999.90;999.90;;;;;;;-0.90;93.99;100455.84;10335114;28;20132;-64
2024/01/16 19:54:55;;;;;;;1999.90;999.90;;;;;;;-1.07;92.75;100453.53;10334618;28;20053;-64
2024/01/16 19:59:59;;;;;;;1999.90;999.90;;;;;;;-0.95;93.61;100448.19;10335248;28;20371;-64
2024/01/16 20:05:01;;;;;;;1999.90;999.90;;;;;;;-1.21;94.85;100441.75;10334808;28;20054;-63
2024/01/16 20:10:06;;;;;;;1999.90;999.90;;;;;;;-1.04;94.64;100440.59;10334807;28;20166;-63
2024/01/16 20:15:13;;;;;;;1999.90;999.90;;;;;;;-1.25;97.51;100429.78;10334634;28;20084;-63
2024/01/16 20:20:15;;;;;;;1999.90;999.90;;;;;;;-1.18;95.80;100434.00;10334004;28;20047;-63
2024/01/16 20:25:18;;;;;;;1999.90;999.90;;;;;;;-1.04;97.13;100440.59;10334353;28;20058;-63
2024/01/16 20:30:21;;;;;;;1999.90;999.90;;;;;;;-0.98;94.77;100438.78;10338780;28;20552;-63
2024/01/16 20:35:24;;;;;;;1999.90;999.90;;;;;;;-0.88;95.83;100434.38;10342621;28;20080;-64
2024/01/16 20:40:26;;;;;;;1999.90;999.90;;;;;;;-1.15;95.49;100415.94;10342048;28;20137;-64
2024/01/16 20:45:29;;;;;;;1999.90;999.90;;;;;;;-1.23;94.46;100406.66;10342293;28;20129;-63
2024/01/16 20:50:31;;;;;;;1999.90;999.90;;;;;;;-1.19;94.36;100398.03;10342115;28;20129;-64
2024/01/16 20:55:34;;;;;;;1999.90;999.90;;;;;;;-1.07;92.28;100389.28;10341378;28;20054;-64
2024/01/16 21:00:37;;;;;;;1999.90;999.90;;;;;;;-1.07;94.23;100385.00;10341055;28;20481;-64
2024/01/16 21:05:40;;;;;;;1999.90;999.90;;;;;;;-1.20;93.07;100379.19;10340376;28;20081;-63
2024/01/16 21:10:43;;;;;;;1999.90;999.90;;;;;;;-1.18;94.52;100374.91;10341530;28;20053;-64
2024/01/16 21:15:46;;;;;;;1999.90;999.90;;;;;;;-1.18;94.39;100366.31;10341070;28;20050;-64
2024/01/16 21:20:49;;;;;;;1999.90;999.90;;;;;;;-1.07;94.50;100356.72;10340870;28;20047;-64
2024/01/16 21:25:51;;;;;;;1999.90;999.90;;;;;;;-1.17;94.55;100360.31;10340276;28;20065;-64
2024/01/16 21:30:56;;;;;;;1999.90;999.90;;;;;;;-1.30;92.76;100351.94;10340581;28;20064;-63
2024/01/16 21:36:04;;;;;;;1999.90;999.90;;;;;;;-1.38;93.25;100339.25;10340374;28;20133;-64
2024/01/16 21:41:07;;;;;;;1999.90;999.90;;;;;;;-1.05;94.43;100333.59;10338466;28;20490;-63
2024/01/16 21:46:10;;;;;;;1999.90;999.90;;;;;;;-1.19;93.57;100328.69;10339941;28;20051;-64
2024/01/16 21:51:13;;;;;;;1999.90;999.90;;;;;;;-1.00;94.79;100318.94;10339827;28;20046;-63
2024/01/16 21:56:15;;;;;;;1999.90;999.90;;;;;;;-1.18;94.27;100320.94;10353218;23;20050;-66